createdAt,value
2018-05-15T00:02:22.825Z,65.67
2018-05-15T00:04:51.109Z,62.13
2018-05-15T00:07:21.735Z,62.13
2018-05-15T00:09:50.137Z,67.37
2018-05-15T00:12:18.545Z,60.87
2018-05-15T00:14:46.891Z,64.10
2018-05-15T00:17:15.267Z,70.83
2018-05-15T00:19:43.529Z,59.70
2018-05-15T00:22:11.841Z,71.93
2018-05-15T00:24:40.421Z,69.13
2018-05-15T00:27:08.695Z,63.13
2018-05-15T00:29:36.923Z,61.80
2018-05-15T00:32:05.960Z,61.83
2018-05-15T00:34:34.219Z,75.93
2018-05-15T00:37:02.415Z,64.80
2018-05-15T00:39:30.799Z,72.00
2018-05-15T00:41:59.211Z,61.07
2018-05-15T00:44:28.204Z,76.03
2018-05-15T00:46:56.440Z,65.23
2018-05-15T00:49:25.030Z,64.20
2018-05-15T00:51:53.429Z,65.63
2018-05-15T00:54:21.784Z,74.97
2018-05-15T00:56:50.048Z,67.17
2018-05-15T00:59:18.278Z,70.93
2018-05-15T01:01:49.100Z,74.93
2018-05-15T01:04:18.094Z,75.97
2018-05-15T01:06:46.319Z,74.77
2018-05-15T01:09:14.563Z,72.07
2018-05-15T01:11:42.789Z,79.67
2018-05-15T01:14:11.027Z,76.47
2018-05-15T01:16:39.972Z,75.10
2018-05-15T01:19:09.039Z,90.27
2018-05-15T01:21:37.336Z,83.27
2018-05-15T01:24:05.616Z,85.13
2018-05-15T01:26:33.890Z,78.33
2018-05-15T01:29:02.304Z,62.83
2018-05-15T01:31:30.543Z,70.67
2018-05-15T01:33:58.809Z,68.13
2018-05-15T01:36:28.598Z,70.37
2018-05-15T01:38:56.954Z,61.60
2018-05-15T01:41:25.226Z,72.87
2018-05-15T01:43:53.478Z,78.77
2018-05-15T01:46:21.812Z,65.13
2018-05-15T01:48:50.166Z,82.20
2018-05-15T01:51:18.554Z,73.37
2018-05-15T01:53:47.630Z,88.03
2018-05-15T01:56:16.086Z,73.90
2018-05-15T01:58:44.502Z,75.73
2018-05-15T02:01:12.725Z,78.20
2018-05-15T02:03:41.722Z,84.60
2018-05-15T02:06:10.732Z,85.10
2018-05-15T02:08:38.939Z,92.27
2018-05-15T02:11:07.191Z,88.40
2018-05-15T02:13:35.429Z,80.40
2018-05-15T02:16:04.857Z,69.13
2018-05-15T02:18:33.053Z,79.10
2018-05-15T02:21:03.817Z,84.43
2018-05-15T02:23:32.192Z,78.03
2018-05-15T02:26:00.454Z,86.00
2018-05-15T02:28:28.656Z,92.80
2018-05-15T02:30:56.903Z,103.60
2018-05-15T02:33:25.553Z,91.23
2018-05-15T02:35:55.405Z,93.33
2018-05-15T02:38:23.677Z,95.70
2018-05-15T02:40:52.186Z,94.00
2018-05-15T02:43:20.457Z,94.53
2018-05-15T02:45:48.691Z,90.67
2018-05-15T02:48:17.747Z,87.53
2018-05-15T02:50:46.064Z,88.53
2018-05-15T02:53:15.071Z,86.37
2018-05-15T02:55:43.294Z,88.07
2018-05-15T02:58:11.551Z,83.83
2018-05-15T03:00:39.813Z,84.83
2018-05-15T03:03:08.049Z,84.33
2018-05-15T03:05:36.252Z,80.93
2018-05-15T03:08:05.692Z,90.00
2018-05-15T03:10:33.938Z,81.20
2018-05-15T03:13:02.937Z,82.53
2018-05-15T03:15:31.282Z,80.07
2018-05-15T03:18:00.285Z,86.90
2018-05-15T03:20:29.283Z,83.33
2018-05-15T03:22:57.654Z,78.67
2018-05-15T03:25:26.028Z,95.27
2018-05-15T03:27:54.309Z,89.43
2018-05-15T03:30:23.327Z,96.83
2018-05-15T03:32:51.531Z,91.37
2018-05-15T03:35:19.747Z,88.07
2018-05-15T03:37:49.026Z,102.73
2018-05-15T03:40:17.299Z,96.00
2018-05-15T03:42:45.505Z,112.40
2018-05-15T03:45:13.741Z,112.43
2018-05-15T03:47:42.031Z,105.07
2018-05-15T03:50:11.142Z,111.53
2018-05-15T03:52:39.362Z,111.57
2018-05-15T03:55:08.367Z,107.40
2018-05-15T03:57:36.631Z,116.10
2018-05-15T04:00:05.945Z,123.17
2018-05-15T04:02:46.346Z,110.33
2018-05-15T04:05:26.518Z,108.80
2018-05-15T04:08:14.906Z,103.77
2018-05-15T04:10:43.378Z,95.47
2018-05-15T04:13:11.805Z,112.03
2018-05-15T04:15:40.208Z,94.50
2018-05-15T04:18:08.428Z,97.63
2018-05-15T04:20:37.423Z,96.27
2018-05-15T04:23:06.681Z,101.80
2018-05-15T04:25:36.428Z,99.20
2018-05-15T04:28:04.966Z,105.50
2018-05-15T04:30:33.665Z,108.53
2018-05-15T04:33:02.049Z,93.20
2018-05-15T04:35:30.285Z,96.10
2018-05-15T04:37:58.542Z,100.87
2018-05-15T04:40:27.582Z,102.90
2018-05-15T04:42:55.789Z,96.47
2018-05-15T04:45:24.009Z,101.70
2018-05-15T04:47:52.973Z,102.10
2018-05-15T04:50:22.134Z,102.20
2018-05-15T04:52:51.222Z,111.07
2018-05-15T04:55:19.511Z,112.13
2018-05-15T04:57:47.749Z,108.53
2018-05-15T05:00:16.750Z,110.73
2018-05-15T05:02:45.061Z,109.67
2018-05-15T05:05:13.330Z,101.40
2018-05-15T05:07:41.554Z,114.53
2018-05-15T05:10:10.724Z,114.03
2018-05-15T05:12:38.926Z,119.47
2018-05-15T05:15:07.956Z,107.30
2018-05-15T05:17:36.400Z,116.53
2018-05-15T05:20:06.475Z,102.43
2018-05-15T05:22:34.737Z,111.00
2018-05-15T05:25:02.982Z,112.90
2018-05-15T05:27:31.313Z,107.87
2018-05-15T05:29:59.808Z,107.20
2018-05-15T05:32:28.870Z,104.07
2018-05-15T05:34:58.203Z,110.60
2018-05-15T05:37:26.402Z,106.30
2018-05-15T05:39:54.754Z,93.13
2018-05-15T05:42:23.078Z,93.93
2018-05-15T05:44:51.313Z,89.63
2018-05-15T05:47:19.508Z,95.90
2018-05-15T05:49:47.864Z,94.97
2018-05-15T05:52:16.143Z,87.07
2018-05-15T05:54:45.351Z,86.40
2018-05-15T05:57:13.618Z,78.90
2018-05-15T05:59:41.835Z,77.63
2018-05-15T06:02:10.203Z,73.53
2018-05-15T06:04:38.393Z,85.40
2018-05-15T06:07:06.639Z,75.87
2018-05-15T06:09:34.875Z,72.57
2018-05-15T06:12:03.871Z,73.83
2018-05-15T06:14:32.176Z,73.63
2018-05-15T06:17:00.659Z,68.77
2018-05-15T06:19:28.901Z,73.23
2018-05-15T06:21:57.879Z,63.77
2018-05-15T06:24:26.846Z,63.53
2018-05-15T06:26:55.104Z,62.93
2018-05-15T06:29:23.321Z,52.37
2018-05-15T06:31:51.549Z,56.33
2018-05-15T06:34:19.825Z,61.60
2018-05-15T06:36:48.081Z,52.80
2018-05-15T06:39:16.295Z,55.90
2018-05-15T06:41:44.671Z,51.87
2018-05-15T06:44:13.049Z,51.87
2018-05-15T06:46:41.341Z,47.80
2018-05-15T06:49:09.560Z,49.47
2018-05-15T06:51:37.772Z,44.73
2018-05-15T06:54:06.008Z,45.30
2018-05-15T06:56:35.037Z,48.87
2018-05-15T06:59:03.268Z,47.70
2018-05-15T07:01:33.040Z,43.33
2018-05-15T07:04:01.237Z,48.03
2018-05-15T07:06:30.095Z,47.77
2018-05-15T07:08:58.312Z,51.93
2018-05-15T07:11:28.072Z,45.43
2018-05-15T07:13:56.306Z,43.90
2018-05-15T07:16:24.534Z,41.27
2018-05-15T07:18:52.834Z,38.70
2018-05-15T07:21:21.120Z,41.57
2018-05-15T07:23:49.396Z,35.50
2018-05-15T07:26:17.582Z,34.17
2018-05-15T07:28:45.834Z,40.20
2018-05-15T07:31:14.028Z,30.07
2018-05-15T07:33:42.218Z,36.77
2018-05-15T07:36:11.205Z,36.33
2018-05-15T07:38:39.414Z,31.07
2018-05-15T07:41:08.427Z,34.53
2018-05-15T07:43:37.402Z,33.27
2018-05-15T07:46:05.660Z,29.50
2018-05-15T07:48:34.356Z,34.57
2018-05-15T07:51:04.167Z,39.60
2018-05-15T07:53:32.483Z,33.93
2018-05-15T07:56:01.434Z,31.27
2018-05-15T07:58:29.662Z,33.00
2018-05-15T08:00:58.190Z,38.17
2018-05-15T08:03:26.449Z,30.67
2018-05-15T08:05:54.854Z,32.40
2018-05-15T08:08:23.071Z,26.20
2018-05-15T08:10:52.016Z,29.50
2018-05-15T08:13:20.239Z,33.03
2018-05-15T08:15:48.467Z,31.30
2018-05-15T08:18:16.731Z,30.50
2018-05-15T08:20:46.500Z,33.90
2018-05-15T08:23:15.530Z,27.83
2018-05-15T08:25:43.807Z,32.20
2018-05-15T08:28:12.002Z,34.33
2018-05-15T08:30:40.291Z,33.40
2018-05-15T08:33:09.282Z,28.10
2018-05-15T08:35:37.650Z,29.87
2018-05-15T08:38:05.839Z,31.10
2018-05-15T08:40:34.185Z,26.80
2018-05-15T08:43:02.425Z,29.47
2018-05-15T08:45:30.732Z,30.10
2018-05-15T08:47:59.675Z,34.53
2018-05-15T08:50:28.042Z,31.40
2018-05-15T08:52:56.478Z,25.93
2018-05-15T08:55:24.657Z,25.23
2018-05-15T08:57:52.881Z,39.93
2018-05-15T09:00:21.135Z,32.40
2018-05-15T09:02:49.344Z,27.20
2018-05-15T09:05:17.590Z,30.63
2018-05-15T09:07:45.876Z,25.03
2018-05-15T09:10:14.111Z,22.30
2018-05-15T09:12:43.153Z,26.73
2018-05-15T09:15:11.350Z,28.37
2018-05-15T09:17:39.682Z,26.93
2018-05-15T09:20:07.888Z,27.80
2018-05-15T09:22:36.138Z,25.77
2018-05-15T09:27:40.370Z,27.63
2018-05-15T09:30:08.667Z,31.03
2018-05-15T09:32:36.854Z,28.00
2018-05-15T09:35:05.033Z,29.53
2018-05-15T09:37:33.215Z,30.60
2018-05-15T09:40:01.470Z,32.83
2018-05-15T09:42:29.637Z,26.43
2018-05-15T09:44:57.819Z,26.40
2018-05-15T09:47:26.039Z,27.10
2018-05-15T09:49:54.209Z,27.33
2018-05-15T09:52:22.471Z,25.27
2018-05-15T09:54:50.743Z,26.07
2018-05-15T09:57:18.983Z,26.47
2018-05-15T09:59:47.235Z,29.13
2018-05-15T10:02:15.573Z,31.20
2018-05-15T10:04:45.518Z,31.97
2018-05-15T10:07:13.727Z,31.73
2018-05-15T10:09:42.702Z,32.80
2018-05-15T10:12:11.847Z,29.17
2018-05-15T10:14:41.470Z,32.67
2018-05-15T10:17:09.703Z,25.47
2018-05-15T10:19:38.689Z,30.20
2018-05-15T10:22:06.970Z,27.83
2018-05-15T10:24:36.244Z,26.20
2018-05-15T10:27:04.485Z,29.47
2018-05-15T10:29:32.731Z,28.83
2018-05-15T10:32:00.939Z,27.80
2018-05-15T10:34:29.226Z,25.77
2018-05-15T10:36:57.537Z,30.20
2018-05-15T10:39:25.771Z,26.73
2018-05-15T10:41:54.651Z,27.47
2018-05-15T10:44:23.053Z,31.97
2018-05-15T10:46:51.385Z,26.50
2018-05-15T10:49:20.628Z,26.20
2018-05-15T10:51:48.867Z,26.40
2018-05-15T10:54:18.108Z,29.03
2018-05-15T10:56:46.329Z,28.70
2018-05-15T10:59:14.565Z,69.10
2018-05-15T11:01:42.840Z,28.43
2018-05-15T11:04:11.167Z,27.60
2018-05-15T11:06:40.192Z,27.43
2018-05-15T11:09:08.434Z,26.93
2018-05-15T11:11:36.840Z,30.40
2018-05-15T11:14:08.602Z,26.77
2018-05-15T11:16:39.174Z,25.60
2018-05-15T11:19:19.572Z,26.03
2018-05-15T11:22:00.488Z,23.90
2018-05-15T11:24:40.906Z,26.77
2018-05-15T11:27:09.161Z,26.57
2018-05-15T11:29:37.434Z,26.63
2018-05-15T11:32:05.703Z,27.03
2018-05-15T11:34:33.980Z,26.10
2018-05-15T11:37:02.357Z,25.87
2018-05-15T11:39:31.447Z,25.17
2018-05-15T11:41:59.717Z,24.27
2018-05-15T11:44:27.937Z,23.57
2018-05-15T11:46:56.599Z,21.27
2018-05-15T11:49:25.972Z,23.57
2018-05-15T11:51:54.184Z,16.93
2018-05-15T11:54:22.527Z,20.03
2018-05-15T11:56:50.846Z,15.67
2018-05-15T11:59:19.057Z,17.87
2018-05-15T12:01:47.291Z,16.80
2018-05-15T12:04:15.590Z,16.67
2018-05-15T12:06:44.635Z,25.33
2018-05-15T12:09:13.623Z,30.47
2018-05-15T12:11:42.047Z,26.70
2018-05-15T12:14:10.299Z,30.97
2018-05-15T12:16:38.511Z,39.07
2018-05-15T12:19:06.861Z,35.30
2018-05-15T12:21:35.071Z,33.50
2018-05-15T12:24:03.283Z,32.47
2018-05-15T12:26:32.334Z,28.90
2018-05-15T12:29:00.727Z,32.27
2018-05-15T12:31:29.127Z,32.73
2018-05-15T12:34:04.503Z,32.63
2018-05-15T12:36:33.021Z,33.90
2018-05-15T12:39:01.246Z,30.63
2018-05-15T12:41:30.568Z,29.97
2018-05-15T12:43:59.543Z,28.83
2018-05-15T12:46:28.041Z,34.33
2018-05-15T12:48:57.025Z,31.50
2018-05-15T12:51:25.998Z,24.53
2018-05-15T12:53:54.461Z,29.27
2018-05-15T12:56:23.252Z,23.17
2018-05-15T12:58:51.615Z,33.80
2018-05-15T13:01:19.914Z,18.13
2018-05-15T13:03:48.208Z,31.60
2018-05-15T13:06:17.591Z,23.07
2018-05-15T13:08:45.792Z,10.30
2018-05-15T13:11:14.268Z,11.00
2018-05-15T13:13:42.518Z,19.47
2018-05-15T13:16:10.740Z,31.60
2018-05-15T13:18:39.083Z,26.87
2018-05-15T13:21:08.087Z,9.70
2018-05-15T13:23:37.273Z,9.80
2018-05-15T13:26:06.455Z,10.50
2018-05-15T13:28:34.663Z,11.63
2018-05-15T13:31:03.685Z,28.67
2018-05-15T13:33:32.695Z,32.00
2018-05-15T13:36:09.161Z,31.23
2018-05-15T13:38:38.456Z,22.20
2018-05-15T13:41:06.991Z,15.50
2018-05-15T13:43:35.375Z,12.00
2018-05-15T13:46:03.596Z,9.47
2018-05-15T13:48:31.796Z,10.90
2018-05-15T13:51:00.117Z,14.10
2018-05-15T13:53:29.523Z,10.13
2018-05-15T13:55:57.755Z,11.03
2018-05-15T13:58:26.943Z,14.63
2018-05-15T14:00:55.291Z,8.57
2018-05-15T14:03:23.536Z,9.93
2018-05-15T14:05:51.900Z,9.10
2018-05-15T14:08:20.146Z,11.33
2018-05-15T14:10:48.484Z,10.40
2018-05-15T14:13:17.883Z,8.97
2018-05-15T14:15:58.968Z,11.77
2018-05-15T14:18:30.195Z,10.20
2018-05-15T14:20:58.518Z,10.57
2018-05-15T14:23:28.128Z,11.23
2018-05-15T14:25:56.403Z,10.10
2018-05-15T14:28:24.662Z,10.83
2018-05-15T14:30:52.936Z,7.93
2018-05-15T14:33:22.556Z,9.03
2018-05-15T14:35:50.777Z,10.13
2018-05-15T14:38:19.820Z,8.83
2018-05-15T14:40:48.884Z,8.80
2018-05-15T14:43:23.244Z,7.80
2018-05-15T14:45:51.490Z,9.17
2018-05-15T14:48:20.433Z,6.90
2018-05-15T14:54:06.223Z,9.07
2018-05-15T14:56:34.491Z,7.53
2018-05-15T14:59:02.716Z,7.27
2018-05-15T15:01:31.869Z,9.23
2018-05-15T15:04:00.361Z,9.63
2018-05-15T15:06:28.761Z,13.60
2018-05-15T15:08:57.969Z,17.93
2018-05-15T15:11:26.376Z,16.23
2018-05-15T15:14:06.399Z,14.80
2018-05-15T15:16:35.505Z,18.80
2018-05-15T15:19:04.515Z,18.57
2018-05-15T15:21:33.615Z,16.53
2018-05-15T15:24:06.245Z,15.87
2018-05-15T15:26:34.523Z,18.00
2018-05-15T15:29:02.750Z,16.77
2018-05-15T15:31:31.766Z,16.07
2018-05-15T15:34:00.068Z,15.33
2018-05-15T15:36:28.313Z,15.97
2018-05-15T15:38:57.401Z,14.90
2018-05-15T15:41:30.011Z,14.77
2018-05-15T15:44:03.483Z,14.30
2018-05-15T15:46:31.805Z,15.87
2018-05-15T15:49:00.623Z,13.80
2018-05-15T15:51:30.922Z,17.87
2018-05-15T15:53:59.259Z,17.67
2018-05-15T15:56:28.505Z,13.43
2018-05-15T15:59:23.467Z,12.20
2018-05-15T16:01:53.320Z,15.13
2018-05-15T16:04:21.552Z,10.97
2018-05-15T16:06:50.546Z,13.13
2018-05-15T16:09:19.593Z,10.53
2018-05-15T16:11:47.878Z,10.10
2018-05-15T16:14:16.148Z,11.87
2018-05-15T16:16:44.381Z,11.80
2018-05-15T16:19:24.924Z,9.13
2018-05-15T16:22:03.778Z,14.80
2018-05-15T16:24:38.284Z,12.40
2018-05-15T16:27:23.175Z,10.90
2018-05-15T16:30:07.603Z,9.33
2018-05-15T16:35:36.956Z,11.20
2018-05-15T16:38:05.412Z,13.40
2018-05-15T16:40:33.755Z,13.73
2018-05-15T16:43:02.001Z,9.87
2018-05-15T16:45:30.340Z,10.30
2018-05-15T16:47:58.561Z,14.20
2018-05-15T16:50:26.931Z,9.03
2018-05-15T16:52:55.207Z,13.67
2018-05-15T16:55:24.193Z,14.17
2018-05-15T16:57:53.251Z,11.53
2018-05-15T17:00:21.731Z,14.97
2018-05-15T17:02:50.103Z,12.00
2018-05-15T17:05:18.480Z,10.30
2018-05-15T17:07:47.562Z,12.20
2018-05-15T17:10:15.870Z,10.30
2018-05-15T17:12:44.110Z,13.23
2018-05-15T17:15:12.533Z,13.33
2018-05-15T17:17:40.936Z,12.87
2018-05-15T17:20:09.391Z,15.07
2018-05-15T17:22:38.510Z,16.33
2018-05-15T17:25:07.049Z,13.83
2018-05-15T17:27:41.512Z,15.10
2018-05-15T17:30:15.451Z,10.60
2018-05-15T17:32:44.859Z,13.07
2018-05-15T17:35:13.904Z,14.37
2018-05-15T17:37:44.026Z,14.60
2018-05-15T17:40:12.350Z,11.63
2018-05-15T17:42:41.415Z,15.63
2018-05-15T17:45:09.986Z,13.17
2018-05-15T17:47:39.096Z,13.27
2018-05-15T17:50:08.373Z,12.07
2018-05-15T17:52:50.591Z,15.16
2018-05-15T17:55:18.749Z,12.63
2018-05-15T17:57:49.050Z,16.73
2018-05-15T18:00:21.100Z,16.27
2018-05-15T18:02:50.222Z,18.37
2018-05-15T18:05:19.474Z,14.93
2018-05-15T18:07:48.727Z,13.47
2018-05-15T18:10:17.154Z,18.20
2018-05-15T18:13:09.461Z,15.53
2018-05-15T18:15:41.924Z,19.40
2018-05-15T18:18:24.915Z,14.63
2018-05-15T18:20:53.991Z,18.73
2018-05-15T18:23:22.265Z,15.10
2018-05-15T18:25:50.575Z,16.67
2018-05-15T18:28:21.134Z,15.83
2018-05-15T18:30:49.446Z,18.97
2018-05-15T18:33:17.742Z,18.43
2018-05-15T18:35:46.688Z,18.13
2018-05-15T18:38:16.714Z,21.57
2018-05-15T18:40:49.797Z,17.40
2018-05-15T18:43:31.273Z,17.13
2018-05-15T18:46:08.887Z,19.13
2018-05-15T18:48:55.215Z,18.83
2018-05-15T18:51:27.333Z,16.77
2018-05-15T18:54:10.761Z,21.80
2018-05-15T18:59:38.296Z,19.40
2018-05-15T19:02:06.676Z,18.47
2018-05-15T19:04:34.931Z,16.93
2018-05-15T19:07:03.261Z,20.67
2018-05-15T19:09:31.611Z,19.73
2018-05-15T19:11:59.860Z,21.57
2018-05-15T19:14:29.113Z,18.87
2018-05-15T19:16:57.372Z,19.40
2018-05-15T19:19:26.194Z,24.93
2018-05-15T19:21:54.329Z,23.87
2018-05-15T19:24:22.769Z,20.23
2018-05-15T19:26:51.076Z,20.67
2018-05-15T19:29:19.395Z,25.87
2018-05-15T19:31:52.469Z,23.30
2018-05-15T19:34:24.657Z,21.83
2018-05-15T19:36:59.295Z,20.60
2018-05-15T19:39:33.413Z,21.03
2018-05-15T19:42:01.643Z,22.20
2018-05-15T19:44:29.972Z,23.70
2018-05-15T19:47:00.966Z,20.53
2018-05-15T19:49:32.837Z,20.00
2018-05-15T19:52:02.454Z,21.60
2018-05-15T19:54:30.933Z,22.37
2018-05-15T19:56:59.889Z,19.93
2018-05-15T19:59:28.985Z,20.07
2018-05-15T20:02:01.073Z,22.63
2018-05-15T20:04:30.251Z,19.53
2018-05-15T20:06:58.584Z,22.77
2018-05-15T20:09:26.909Z,24.03
2018-05-15T20:11:57.330Z,22.27
2018-05-15T20:14:28.591Z,23.73
2018-05-15T20:16:58.878Z,24.03
2018-05-15T20:19:30.122Z,24.93
2018-05-15T20:21:58.892Z,26.03
2018-05-15T20:24:27.235Z,22.37
2018-05-15T20:26:59.139Z,24.90
2018-05-15T20:29:29.666Z,23.30
2018-05-15T20:31:58.692Z,24.30
2018-05-15T20:34:26.944Z,27.47
2018-05-15T20:36:55.315Z,24.87
2018-05-15T20:39:23.546Z,26.77
2018-05-15T20:41:51.874Z,25.63
2018-05-15T20:44:22.528Z,27.43
2018-05-15T20:46:51.165Z,25.13
2018-05-15T20:49:19.383Z,24.00
2018-05-15T20:51:49.188Z,23.10
2018-05-15T20:54:17.807Z,24.30
2018-05-15T20:56:47.918Z,21.97
2018-05-15T20:59:18.301Z,27.30
2018-05-15T21:01:46.700Z,29.50
2018-05-15T21:04:14.940Z,25.27
2018-05-15T21:06:43.801Z,27.10
2018-05-15T21:09:12.055Z,26.47
2018-05-15T21:14:36.360Z,28.10
2018-05-15T21:17:06.620Z,25.23
2018-05-15T21:19:45.238Z,30.57
2018-05-15T21:22:28.637Z,26.37
2018-05-15T21:24:56.984Z,29.83
2018-05-15T21:27:25.299Z,29.93
2018-05-15T21:29:53.517Z,29.30
2018-05-15T21:32:21.860Z,30.80
2018-05-15T21:34:50.111Z,31.33
2018-05-15T21:37:20.953Z,30.43
2018-05-15T21:39:52.979Z,32.77
2018-05-15T21:42:27.250Z,32.50
2018-05-15T21:44:57.492Z,40.80
2018-05-15T21:47:25.893Z,40.90
2018-05-15T21:49:54.095Z,38.80
2018-05-15T21:52:22.333Z,41.23
2018-05-15T21:55:02.637Z,44.53
2018-05-15T21:57:31.045Z,44.57
2018-05-15T21:59:59.571Z,47.27
2018-05-15T22:02:36.915Z,47.43
2018-05-15T22:05:06.078Z,48.30
2018-05-15T22:07:34.510Z,47.03
2018-05-15T22:10:15.693Z,50.30
2018-05-15T22:15:46.652Z,53.83
2018-05-15T22:18:27.957Z,54.43
2018-05-15T22:21:08.120Z,53.67
2018-05-15T22:23:36.685Z,54.87
2018-05-15T22:26:04.906Z,55.57
2018-05-15T22:28:33.966Z,56.03
2018-05-15T22:31:03.776Z,58.27
2018-05-15T22:33:37.979Z,56.47
2018-05-15T22:36:21.897Z,55.37
2018-05-15T22:39:23.180Z,55.33
2018-05-15T22:44:42.210Z,57.70
2018-05-15T22:47:11.233Z,53.77
2018-05-15T22:49:42.416Z,50.00
2018-05-15T22:52:11.406Z,50.10
2018-05-15T22:54:39.724Z,49.67
2018-05-15T22:57:07.974Z,50.77
2018-05-15T22:59:37.075Z,48.27
2018-05-15T23:02:23.157Z,44.23
2018-05-15T23:04:52.765Z,46.37
2018-05-15T23:07:27.490Z,46.83
2018-05-15T23:09:55.706Z,46.47
2018-05-15T23:12:23.905Z,49.57
2018-05-15T23:14:53.669Z,50.33
2018-05-15T23:17:27.209Z,62.00
2018-05-15T23:19:55.843Z,51.97
2018-05-15T23:22:37.978Z,51.83
2018-05-15T23:25:06.314Z,53.27
2018-05-15T23:27:34.580Z,57.23
2018-05-15T23:30:02.846Z,49.47
2018-05-15T23:32:34.572Z,50.77
2018-05-15T23:35:16.695Z,59.13
2018-05-15T23:37:47.595Z,56.43
2018-05-15T23:43:15.769Z,49.83
2018-05-15T23:45:46.552Z,49.43
2018-05-15T23:48:15.018Z,52.03
2018-05-15T23:50:43.282Z,48.20
2018-05-15T23:53:13.230Z,51.37
2018-05-15T23:55:55.553Z,49.13
2018-05-15T23:58:32.710Z,51.93
